Time;durP1;ratioP1;P1;durP2;ratioP2;P2;SDS_P1;SDS_P2;PMS_P1;PMS_P2;Temp;Humidity;BMP_temperature;BMP_pressure;BME280_temperature;BME280_humidity;BME280_pressure;Samples;Min_cycle;Max_cycle;Signal;HPM_P1;HPM_P2
2024/04/21 00:01:01;;;;;;;0.60;0.60;;;3.90;99.90;;;;;;5478938;26;20017;-73
2024/04/21 00:03:27;;;;;;;0.60;0.60;;;3.80;99.90;;;;;;5450821;26;20380;-74
2024/04/21 00:06:13;;;;;;;0.60;0.60;;;3.90;99.90;;;;;;5450841;26;20595;-73
2024/04/21 00:08:38;;;;;;;0.70;0.70;;;3.80;99.90;;;;;;5386924;26;20078;-74
2024/04/21 00:11:04;;;;;;;0.70;0.70;;;3.80;99.90;;;;;;5448626;26;20021;-74
2024/04/21 00:13:30;;;;;;;0.80;0.80;;;3.70;99.90;;;;;;5469517;26;20042;-74
2024/04/21 00:15:56;;;;;;;0.70;0.70;;;3.60;99.90;;;;;;5446283;26;20035;-75
2024/04/21 00:18:41;;;;;;;0.75;0.75;;;3.40;99.90;;;;;;5427411;26;20014;-75
2024/04/21 00:21:07;;;;;;;0.60;0.60;;;3.30;99.90;;;;;;5447349;26;20018;-74
2024/04/21 00:23:36;;;;;;;0.70;0.70;;;3.20;99.90;;;;;;5449747;26;20006;-75
2024/04/21 00:26:04;;;;;;;0.68;0.68;;;3.10;99.90;;;;;;5455699;26;20002;-74
2024/04/21 00:28:30;;;;;;;0.70;0.70;;;3.10;99.90;;;;;;5484453;26;20038;-74
2024/04/21 00:30:56;;;;;;;0.68;0.68;;;3.00;99.90;;;;;;5478711;26;20099;-73
2024/04/21 00:33:22;;;;;;;0.70;0.70;;;3.00;99.90;;;;;;5479910;26;20006;-73
2024/04/21 00:35:48;;;;;;;0.70;0.70;;;3.00;99.90;;;;;;5479788;26;20344;-72
2024/04/21 00:38:15;;;;;;;0.70;0.70;;;3.00;99.90;;;;;;5482804;26;20475;-74
2024/04/21 00:40:41;;;;;;;0.60;0.60;;;2.90;99.90;;;;;;5470868;26;20025;-74
2024/04/21 00:43:10;;;;;;;0.70;0.70;;;3.00;99.90;;;;;;5453785;26;20038;-74
2024/04/21 00:45:40;;;;;;;0.80;0.80;;;3.00;99.90;;;;;;5479632;26;20016;-74
2024/04/21 00:48:07;;;;;;;1.10;1.10;;;3.00;99.90;;;;;;5483366;26;20067;-74
2024/04/21 00:50:34;;;;;;;0.70;0.70;;;3.00;99.90;;;;;;5484438;26;20025;-74
2024/04/21 00:53:01;;;;;;;0.70;0.70;;;3.10;99.90;;;;;;5452952;26;20053;-73
2024/04/21 00:55:28;;;;;;;0.55;0.55;;;3.10;99.90;;;;;;5475234;26;20038;-73
2024/04/21 00:57:55;;;;;;;0.70;0.70;;;3.20;99.90;;;;;;5484910;26;20020;-74
2024/04/21 01:00:23;;;;;;;0.60;0.60;;;3.20;99.90;;;;;;5451828;26;20014;-74
2024/04/21 01:02:49;;;;;;;0.60;0.60;;;3.30;99.90;;;;;;5447065;26;20115;-75
2024/04/21 01:05:15;;;;;;;0.50;0.50;;;3.40;99.90;;;;;;5482549;26;20014;-75
2024/04/21 01:07:41;;;;;;;;;;;3.40;99.90;;;;;;5483906;26;20078;-75
2024/04/21 01:10:07;;;;;;;0.77;0.77;;;3.80;99.90;;;;;;5452970;26;20370;-74
2024/04/21 01:12:43;;;;;;;0.65;0.65;;;3.20;99.90;;;;;;5474988;26;20017;-74
2024/04/21 01:15:09;;;;;;;0.60;0.60;;;3.00;99.90;;;;;;5474727;26;20007;-74
2024/04/21 01:17:36;;;;;;;0.60;0.60;;;3.10;99.90;;;;;;5476898;26;20484;-74
2024/04/21 01:20:03;;;;;;;0.60;0.60;;;3.10;99.90;;;;;;5479413;26;20021;-74
2024/04/21 01:22:29;;;;;;;0.70;0.70;;;3.10;99.90;;;;;;5453445;26;20488;-74
2024/04/21 01:24:55;;;;;;;0.70;0.70;;;3.00;99.90;;;;;;5480717;26;20022;-75
2024/04/21 01:27:22;;;;;;;0.70;0.70;;;2.90;99.90;;;;;;5481840;26;20002;-74
2024/04/21 01:29:47;;;;;;;;;;;2.90;99.90;;;;;;5453269;26;20017;-74
2024/04/21 01:32:20;;;;;;;0.60;0.60;;;2.70;99.90;;;;;;5452257;26;19930;-75
2024/04/21 01:34:47;;;;;;;0.70;0.70;;;2.60;99.90;;;;;;5474265;26;20025;-75
2024/04/21 01:37:13;;;;;;;;;;;2.30;99.90;;;;;;5483151;26;20006;-75
2024/04/21 01:39:39;;;;;;;0.80;0.80;;;2.00;99.90;;;;;;5472638;26;19935;-75
2024/04/21 01:42:05;;;;;;;0.80;0.80;;;1.70;99.90;;;;;;5452657;26;20006;-74
2024/04/21 01:44:31;;;;;;;0.80;0.80;;;1.30;99.90;;;;;;5453582;26;20038;-74
2024/04/21 01:46:56;;;;;;;0.80;0.80;;;1.10;99.90;;;;;;5479792;26;20468;-72
2024/04/21 01:49:22;;;;;;;0.70;0.70;;;1.00;99.90;;;;;;5453191;26;20002;-73
2024/04/21 01:51:48;;;;;;;;;;;1.50;99.90;;;;;;5484339;26;20460;-72
2024/04/21 01:54:14;;;;;;;0.80;0.80;;;0.90;99.90;;;;;;5481941;26;19992;-73
2024/04/21 01:56:39;;;;;;;0.70;0.70;;;0.90;99.90;;;;;;5447408;26;20003;-73
2024/04/21 01:59:05;;;;;;;0.80;0.80;;;2.00;99.90;;;;;;5448660;26;20342;-72
2024/04/21 02:01:31;;;;;;;0.63;0.63;;;1.20;99.90;;;;;;5452683;26;20392;-73
2024/04/21 02:03:59;;;;;;;0.70;0.70;;;1.10;99.90;;;;;;5453302;26;20014;-73
2024/04/21 02:06:25;;;;;;;0.70;0.70;;;1.20;99.90;;;;;;5449804;26;20006;-73
2024/04/21 02:08:54;;;;;;;0.80;0.80;;;1.20;99.90;;;;;;5480885;26;20006;-74
2024/04/21 02:11:20;;;;;;;0.70;0.70;;;1.20;99.90;;;;;;5481932;26;20036;-73
2024/04/21 02:13:46;;;;;;;;;;;1.20;99.90;;;;;;5485466;26;20038;-73
2024/04/21 02:16:11;;;;;;;0.70;0.70;;;1.20;99.90;;;;;;5450389;26;20362;-73
2024/04/21 02:18:37;;;;;;;0.80;0.80;;;1.50;99.90;;;;;;5466248;26;20017;-73
2024/04/21 02:21:03;;;;;;;0.80;0.80;;;1.10;99.90;;;;;;5452131;26;20425;-73
2024/04/21 02:23:29;;;;;;;0.55;0.55;;;1.00;99.90;;;;;;5484541;26;20006;-73
2024/04/21 02:26:02;;;;;;;;;;;1.30;99.90;;;;;;5483201;26;20018;-73
2024/04/21 02:28:31;;;;;;;0.80;0.80;;;1.00;99.90;;;;;;5480764;26;19931;-73
2024/04/21 02:30:57;;;;;;;0.90;0.90;;;1.00;99.90;;;;;;5482655;26;20340;-74
2024/04/21 02:33:24;;;;;;;0.82;0.82;;;1.00;99.90;;;;;;5451722;26;20006;-73
2024/04/21 02:35:51;;;;;;;0.80;0.80;;;1.00;99.90;;;;;;5451058;26;20006;-72
2024/04/21 02:38:17;;;;;;;0.75;0.75;;;0.90;99.90;;;;;;5450066;26;20381;-72
2024/04/21 02:40:43;;;;;;;0.80;0.80;;;0.90;99.90;;;;;;5484291;26;20006;-72
2024/04/21 02:43:09;;;;;;;0.70;0.70;;;0.90;99.90;;;;;;5465531;26;20047;-72
2024/04/21 02:45:34;;;;;;;0.80;0.80;;;0.90;99.90;;;;;;5481529;26;20006;-72
2024/04/21 02:48:00;;;;;;;0.70;0.70;;;0.80;99.90;;;;;;5404061;26;20041;-72
2024/04/21 02:50:26;;;;;;;0.70;0.70;;;0.90;99.90;;;;;;5479849;26;20025;-73
2024/04/21 02:52:52;;;;;;;0.80;0.80;;;0.80;99.90;;;;;;5482583;26;20002;-74
2024/04/21 02:55:18;;;;;;;0.60;0.60;;;0.80;99.90;;;;;;5480324;26;20460;-74
2024/04/21 02:57:43;;;;;;;0.75;0.75;;;0.70;99.90;;;;;;5482404;26;20017;-73
2024/04/21 03:00:32;;;;;;;0.70;0.70;;;0.70;99.90;;;;;;5431794;26;20466;-73
2024/04/21 03:02:58;;;;;;;0.70;0.70;;;0.70;99.90;;;;;;5481959;26;20006;-73
2024/04/21 03:05:25;;;;;;;0.80;0.80;;;0.70;99.90;;;;;;5449680;26;20046;-74
2024/04/21 03:07:51;;;;;;;0.68;0.68;;;0.70;99.90;;;;;;5479356;26;20013;-73
2024/04/21 03:10:16;;;;;;;0.60;0.60;;;0.70;99.90;;;;;;5446441;26;20341;-73
2024/04/21 03:12:45;;;;;;;;;;;0.70;99.90;;;;;;5448191;26;20015;-73
2024/04/21 03:15:14;;;;;;;0.70;0.70;;;0.80;99.90;;;;;;5452446;26;19939;-73
2024/04/21 03:17:40;;;;;;;0.70;0.70;;;0.80;99.90;;;;;;5448295;26;20386;-73
2024/04/21 03:20:26;;;;;;;0.70;0.70;;;0.70;99.90;;;;;;5427221;26;20039;-73
2024/04/21 03:23:11;;;;;;;0.77;0.77;;;0.80;99.90;;;;;;5454516;26;20467;-72
2024/04/21 03:25:57;;;;;;;0.70;0.70;;;0.80;99.90;;;;;;5373593;26;20002;-73
2024/04/21 03:28:43;;;;;;;0.68;0.68;;;0.80;99.90;;;;;;5430115;26;20002;-73
2024/04/21 03:31:30;;;;;;;0.60;0.60;;;0.80;99.90;;;;;;5431404;26;20017;-73
2024/04/21 03:34:16;;;;;;;0.80;0.80;;;0.80;99.90;;;;;;5450946;26;20017;-73
2024/04/21 03:37:02;;;;;;;0.77;0.77;;;0.80;99.90;;;;;;5430441;26;20010;-73
2024/04/21 03:39:48;;;;;;;0.70;0.70;;;1.20;99.90;;;;;;5451198;26;20014;-73
2024/04/21 03:42:34;;;;;;;0.80;0.80;;;0.80;99.90;;;;;;5427619;26;20010;-72
2024/04/21 03:45:20;;;;;;;0.80;0.80;;;0.80;99.90;;;;;;5430496;26;20032;-71
2024/04/21 03:48:06;;;;;;;0.77;0.77;;;0.70;99.90;;;;;;5457097;26;20006;-72
2024/04/21 03:50:52;;;;;;;0.73;0.73;;;0.70;99.90;;;;;;5451032;26;20006;-72
2024/04/21 03:53:37;;;;;;;0.80;0.80;;;0.80;99.90;;;;;;5427200;26;20021;-71
2024/04/21 03:56:23;;;;;;;0.70;0.70;;;0.80;99.90;;;;;;5454529;26;20130;-72
2024/04/21 03:59:09;;;;;;;0.60;0.60;;;0.80;99.90;;;;;;5429746;26;20348;-72
2024/04/21 04:01:59;;;;;;;0.80;0.80;;;0.90;99.90;;;;;;5429714;26;20002;-72
2024/04/21 04:04:51;;;;;;;0.70;0.70;;;0.70;99.90;;;;;;5424368;26;20006;-72
2024/04/21 04:07:36;;;;;;;0.70;0.70;;;0.90;99.90;;;;;;5430764;26;20015;-72
2024/04/21 04:10:22;;;;;;;0.65;0.65;;;0.50;99.90;;;;;;5454328;26;20002;-72
2024/04/21 04:13:08;;;;;;;0.70;0.70;;;0.50;99.90;;;;;;5430054;26;20034;-73
2024/04/21 04:15:53;;;;;;;0.77;0.77;;;0.50;99.90;;;;;;5429898;26;20439;-72
2024/04/21 04:18:39;;;;;;;0.63;0.63;;;0.40;99.90;;;;;;5425564;26;20002;-72
2024/04/21 04:21:25;;;;;;;0.80;0.80;;;0.40;99.90;;;;;;5426270;26;20021;-73
2024/04/21 04:24:11;;;;;;;0.80;0.80;;;1.70;99.90;;;;;;5450104;26;20476;-73
2024/04/21 04:26:57;;;;;;;0.80;0.80;;;0.30;99.90;;;;;;5453902;26;20003;-73
2024/04/21 04:29:42;;;;;;;0.65;0.65;;;0.40;99.90;;;;;;5425580;26;20035;-72
2024/04/21 04:32:29;;;;;;;0.77;0.77;;;1.80;99.90;;;;;;5449574;26;20029;-74
2024/04/21 04:34:55;;;;;;;0.73;0.73;;;0.40;99.90;;;;;;5474993;26;20075;-72
2024/04/21 04:37:21;;;;;;;;;;;0.40;99.90;;;;;;5479927;26;20400;-72
2024/04/21 04:39:47;;;;;;;0.77;0.77;;;0.40;99.90;;;;;;5476527;26;19965;-72
2024/04/21 04:42:33;;;;;;;0.70;0.70;;;0.40;99.90;;;;;;5452772;26;19998;-72
2024/04/21 04:45:20;;;;;;;0.60;0.60;;;0.30;99.90;;;;;;5452277;26;20017;-72
2024/04/21 04:47:46;;;;;;;0.80;0.80;;;0.30;99.90;;;;;;5449184;26;20078;-73
2024/04/21 04:50:14;;;;;;;0.80;0.80;;;0.80;99.90;;;;;;5478565;26;20022;-74
2024/04/21 04:53:03;;;;;;;0.80;0.80;;;0.30;99.90;;;;;;5452937;26;20014;-75
2024/04/21 04:55:29;;;;;;;0.70;0.70;;;0.40;99.90;;;;;;5448303;26;20017;-75
2024/04/21 04:57:56;;;;;;;0.70;0.70;;;0.50;99.90;;;;;;5448512;26;20010;-75
2024/04/21 05:00:23;;;;;;;0.70;0.70;;;0.50;99.90;;;;;;5445571;26;20006;-74
2024/04/21 05:02:49;;;;;;;0.80;0.80;;;0.60;99.90;;;;;;5478390;26;20344;-74
2024/04/21 05:05:15;;;;;;;0.73;0.73;;;0.70;99.90;;;;;;5479382;26;20006;-74
2024/04/21 05:07:41;;;;;;;0.80;0.80;;;0.70;99.90;;;;;;5439689;26;20006;-74
2024/04/21 05:10:26;;;;;;;0.80;0.80;;;0.90;99.90;;;;;;5429408;26;20010;-73
2024/04/21 05:12:52;;;;;;;0.80;0.80;;;1.00;99.90;;;;;;5454100;26;20016;-73
2024/04/21 05:15:19;;;;;;;0.70;0.70;;;1.50;99.90;;;;;;5453101;26;20464;-74
2024/04/21 05:17:44;;;;;;;0.73;0.73;;;0.60;99.90;;;;;;5411050;26;20006;-72
2024/04/21 05:20:10;;;;;;;0.60;0.60;;;1.20;99.90;;;;;;5482222;26;20065;-73
2024/04/21 05:22:36;;;;;;;0.70;0.70;;;1.20;99.90;;;;;;5448980;26;20006;-73
2024/04/21 05:25:02;;;;;;;0.80;0.80;;;1.20;99.90;;;;;;5452333;26;20039;-74
2024/04/21 05:27:27;;;;;;;0.60;0.60;;;1.30;99.90;;;;;;5482371;26;20455;-72
2024/04/21 05:29:54;;;;;;;0.73;0.73;;;1.40;99.90;;;;;;5449439;26;20010;-73
2024/04/21 05:32:21;;;;;;;0.80;0.80;;;1.40;99.90;;;;;;5483035;26;20026;-74
2024/04/21 05:34:47;;;;;;;0.70;0.70;;;1.50;99.90;;;;;;5450907;26;20019;-75
2024/04/21 05:37:13;;;;;;;0.80;0.80;;;1.50;99.90;;;;;;5484291;26;20014;-75
2024/04/21 05:39:39;;;;;;;;;;;1.60;99.90;;;;;;5454100;26;20014;-75
2024/04/21 05:42:05;;;;;;;0.73;0.73;;;1.60;99.90;;;;;;5451933;26;19932;-73
2024/04/21 05:44:31;;;;;;;;;;;1.60;99.90;;;;;;5480619;26;20002;-74
2024/04/21 05:46:57;;;;;;;0.60;0.60;;;1.70;99.90;;;;;;5477941;26;19924;-74
2024/04/21 05:49:23;;;;;;;0.80;0.80;;;1.70;99.90;;;;;;5481041;26;20047;-73
2024/04/21 05:51:49;;;;;;;0.60;0.60;;;1.70;99.90;;;;;;5452143;26;20090;-74
2024/04/21 05:54:15;;;;;;;0.73;0.73;;;1.80;99.90;;;;;;5450042;26;20014;-74
2024/04/21 05:56:40;;;;;;;0.70;0.70;;;1.90;99.90;;;;;;5447890;26;20014;-73
2024/04/21 05:59:06;;;;;;;0.80;0.80;;;2.00;99.90;;;;;;5423194;26;20021;-74
2024/04/21 06:01:33;;;;;;;0.75;0.75;;;2.10;99.90;;;;;;5481841;26;20348;-74
2024/04/21 06:04:02;;;;;;;0.70;0.70;;;2.00;99.90;;;;;;5411360;26;20472;-73
2024/04/21 06:06:28;;;;;;;0.60;0.60;;;2.10;99.90;;;;;;5475347;26;20043;-73
2024/04/21 06:08:53;;;;;;;0.70;0.70;;;2.20;99.90;;;;;;5475687;26;20021;-72
2024/04/21 06:11:19;;;;;;;0.98;0.98;;;2.30;99.90;;;;;;5475595;26;20020;-73
2024/04/21 06:13:45;;;;;;;0.70;0.70;;;2.40;99.90;;;;;;5451274;26;20025;-73
2024/04/21 06:16:11;;;;;;;0.60;0.60;;;2.30;99.90;;;;;;5452872;26;20014;-72
2024/04/21 06:18:40;;;;;;;0.63;0.63;;;2.50;99.90;;;;;;5480792;26;20009;-72
2024/04/21 06:21:06;;;;;;;0.60;0.60;;;2.60;99.90;;;;;;5422225;26;20021;-75
2024/04/21 06:23:31;;;;;;;0.60;0.60;;;2.60;99.90;;;;;;5481339;26;20033;-72
2024/04/21 06:25:57;;;;;;;0.70;0.70;;;2.50;99.90;;;;;;5451738;26;20013;-73
2024/04/21 06:28:23;;;;;;;0.60;0.60;;;3.10;99.90;;;;;;5481751;26;20051;-74
2024/04/21 06:30:49;;;;;;;0.68;0.68;;;;;;;;;;5451212;26;20483;-74
2024/04/21 06:33:16;;;;;;;0.60;0.60;;;3.00;99.90;;;;;;5452078;26;20002;-72
2024/04/21 06:35:44;;;;;;;0.70;0.70;;;3.20;99.90;;;;;;5450663;26;20014;-73
2024/04/21 06:38:10;;;;;;;0.50;0.50;;;3.30;99.90;;;;;;5426224;26;19999;-76
2024/04/21 06:40:36;;;;;;;0.63;0.63;;;3.20;99.90;;;;;;5477331;26;20099;-75
2024/04/21 06:43:02;;;;;;;0.60;0.60;;;3.40;99.90;;;;;;5445856;26;20492;-75
2024/04/21 06:45:28;;;;;;;0.55;0.55;;;3.50;99.90;;;;;;5469822;26;20010;-72
2024/04/21 06:47:54;;;;;;;0.60;0.60;;;3.60;99.90;;;;;;5482819;26;20021;-72
2024/04/21 06:50:20;;;;;;;0.77;0.77;;;3.70;99.90;;;;;;5479124;26;20455;-74
2024/04/21 06:52:48;;;;;;;0.65;0.65;;;3.80;99.90;;;;;;5483145;26;20483;-74
2024/04/21 06:55:14;;;;;;;0.73;0.73;;;4.00;99.90;;;;;;5484363;26;20057;-74
2024/04/21 06:57:43;;;;;;;0.60;0.60;;;4.10;99.90;;;;;;5484545;26;20452;-75
2024/04/21 07:00:11;;;;;;;0.70;0.70;;;4.20;99.90;;;;;;5444382;26;20425;-74
2024/04/21 07:02:37;;;;;;;0.80;0.80;;;4.30;99.90;;;;;;5483657;26;19998;-75
2024/04/21 07:05:03;;;;;;;0.50;0.50;;;4.40;99.90;;;;;;5484257;26;20013;-73
2024/04/21 07:07:29;;;;;;;0.60;0.60;;;4.40;99.90;;;;;;5449454;26;20552;-75
2024/04/21 07:09:55;;;;;;;0.70;0.70;;;4.50;99.90;;;;;;5451826;26;20010;-75
2024/04/21 07:12:22;;;;;;;1.35;1.35;;;4.60;99.90;;;;;;5421576;26;20317;-74
2024/04/21 07:14:47;;;;;;;0.60;0.60;;;4.60;99.90;;;;;;5482907;26;20017;-75
2024/04/21 07:17:13;;;;;;;0.52;0.52;;;4.60;99.90;;;;;;5479283;26;20013;-73
2024/04/21 07:19:39;;;;;;;0.60;0.60;;;4.90;99.90;;;;;;5480551;26;20006;-72
2024/04/21 07:22:05;;;;;;;0.60;0.60;;;4.80;99.90;;;;;;5481043;26;20471;-73
2024/04/21 07:24:31;;;;;;;0.60;0.60;;;5.00;99.90;;;;;;5479619;26;20017;-73
2024/04/21 07:26:57;;;;;;;;;;;5.10;99.90;;;;;;5483239;26;20006;-75
2024/04/21 07:29:23;;;;;;;0.63;0.63;;;5.20;99.90;;;;;;5482386;26;20016;-76
2024/04/21 07:31:49;;;;;;;0.70;0.70;;;5.30;99.90;;;;;;5448504;26;20005;-76
2024/04/21 07:34:16;;;;;;;0.60;0.60;;;5.40;99.90;;;;;;5450918;26;20006;-75
2024/04/21 07:36:41;;;;;;;0.60;0.60;;;5.40;99.90;;;;;;5442338;26;20061;-75
2024/04/21 07:39:08;;;;;;;0.55;0.55;;;5.60;99.90;;;;;;5449827;26;20502;-76
2024/04/21 07:41:34;;;;;;;;;;;5.60;99.90;;;;;;5445617;26;20007;-75
2024/04/21 07:44:00;;;;;;;0.53;0.53;;;5.60;99.90;;;;;;5488445;26;19961;-77
2024/04/21 07:46:26;;;;;;;0.60;0.60;;;5.70;99.90;;;;;;5485057;26;20010;-80
2024/04/21 07:48:52;;;;;;;0.88;0.68;;;5.70;99.90;;;;;;5457036;26;20002;-82
2024/04/21 07:51:18;;;;;;;0.60;0.60;;;6.60;99.90;;;;;;5493813;26;20040;-84
2024/04/21 07:53:44;;;;;;;;;;;5.80;99.90;;;;;;5426828;26;19999;-83
2024/04/21 07:56:10;;;;;;;0.50;0.50;;;5.80;99.90;;;;;;5422214;26;19931;-82
2024/04/21 07:58:36;;;;;;;;;;;6.50;99.90;;;;;;5394028;26;20021;-82
2024/04/21 08:01:09;;;;;;;0.60;0.60;;;6.10;99.90;;;;;;5448831;26;19928;-79
2024/04/21 08:03:35;;;;;;;0.50;0.50;;;6.10;99.90;;;;;;5459770;26;20018;-83
2024/04/21 08:06:02;;;;;;;0.68;0.65;;;6.90;99.90;;;;;;5461528;26;20025;-81
2024/04/21 08:08:28;;;;;;;0.60;0.60;;;6.30;99.90;;;;;;5429459;26;19998;-81
2024/04/21 08:10:58;;;;;;;0.65;0.65;;;7.80;99.90;;;;;;5426674;26;20021;-83
2024/04/21 08:13:24;;;;;;;0.43;0.43;;;6.50;99.90;;;;;;5453894;26;20047;-83
2024/04/21 08:15:51;;;;;;;0.60;0.60;;;7.30;99.90;;;;;;5389908;26;20007;-84
2024/04/21 08:18:17;;;;;;;0.55;0.55;;;7.90;99.90;;;;;;5420689;26;20014;-84
2024/04/21 08:20:44;;;;;;;;;;;7.20;99.90;;;;;;5417367;26;20336;-81
2024/04/21 08:23:10;;;;;;;0.50;0.50;;;8.00;99.90;;;;;;5424362;26;19933;-84
2024/04/21 08:25:36;;;;;;;;;;;7.90;99.90;;;;;;5398858;26;20013;-81
2024/04/21 08:28:03;;;;;;;0.43;0.43;;;;;;;;;;5423742;26;19924;-82
2024/04/21 08:30:29;;;;;;;0.55;0.55;;;7.20;99.90;;;;;;5450609;26;20021;-84
2024/04/21 08:32:55;;;;;;;;;;;7.30;99.90;;;;;;5454284;26;20013;-83
2024/04/21 08:35:22;;;;;;;0.50;0.50;;;7.70;99.90;;;;;;5452473;26;19965;-83
2024/04/21 08:37:49;;;;;;;0.50;0.50;;;7.80;99.90;;;;;;5455394;26;20011;-85
2024/04/21 08:40:15;;;;;;;0.50;0.50;;;6.40;99.90;;;;;;5425998;26;20085;-85
2024/04/21 08:42:44;;;;;;;0.57;0.57;;;8.30;99.90;;;;;;5438265;26;20533;-82
2024/04/21 08:45:10;;;;;;;0.50;0.50;;;8.40;99.90;;;;;;5436467;26;20009;-87
2024/04/21 08:47:47;;;;;;;0.50;0.50;;;8.20;99.90;;;;;;5440000;26;20017;-85
2024/04/21 08:50:13;;;;;;;0.50;0.50;;;8.50;99.90;;;;;;5493442;26;20010;-85
2024/04/21 08:52:40;;;;;;;0.50;0.50;;;8.00;99.90;;;;;;5500685;26;20017;-86
2024/04/21 08:55:07;;;;;;;0.50;0.50;;;8.30;99.90;;;;;;5430107;26;20014;-86
2024/04/21 08:57:33;;;;;;;0.50;0.50;;;8.50;99.90;;;;;;5465730;26;20464;-86
2024/04/21 09:00:01;;;;;;;0.52;0.52;;;8.60;99.90;;;;;;5423136;26;20006;-85
2024/04/21 09:02:29;;;;;;;0.45;0.45;;;8.80;99.90;;;;;;5458217;26;20037;-83
2024/04/21 09:04:56;;;;;;;0.93;0.93;;;9.10;99.90;;;;;;5431685;26;20014;-84
2024/04/21 09:07:24;;;;;;;0.50;0.50;;;9.10;99.90;;;;;;5459012;26;20099;-84
2024/04/21 09:09:50;;;;;;;0.55;0.55;;;9.40;99.90;;;;;;5460878;26;20006;-84
2024/04/21 09:12:16;;;;;;;0.40;0.40;;;10.80;99.90;;;;;;5458414;26;20055;-83
2024/04/21 09:14:44;;;;;;;0.40;0.40;;;9.60;99.90;;;;;;5430763;26;20470;-84
2024/04/21 09:17:11;;;;;;;0.40;0.40;;;9.40;99.90;;;;;;5406232;26;20006;-84
2024/04/21 09:19:37;;;;;;;0.40;0.40;;;10.00;99.90;;;;;;5457572;26;20072;-83
2024/04/21 09:22:06;;;;;;;0.40;0.40;;;10.20;99.90;;;;;;5395257;26;20014;-84
2024/04/21 09:24:32;;;;;;;0.40;0.40;;;10.30;99.90;;;;;;5457532;26;20021;-85
2024/04/21 09:26:58;;;;;;;0.40;0.40;;;10.40;99.90;;;;;;5459221;26;20007;-85
2024/04/21 09:29:28;;;;;;;0.40;0.40;;;10.80;99.90;;;;;;5455819;26;20009;-83
2024/04/21 09:31:54;;;;;;;1.38;0.82;;;10.50;99.90;;;;;;5458048;26;20007;-84
2024/04/21 09:34:20;;;;;;;0.40;0.40;;;10.70;99.90;;;;;;5397221;26;20069;-85
2024/04/21 09:36:52;;;;;;;0.30;0.30;;;12.60;99.90;;;;;;5455504;26;20017;-82
2024/04/21 09:39:18;;;;;;;0.47;0.47;;;11.50;99.90;;;;;;5768261;21;20038;-83
2024/04/21 09:41:50;;;;;;;;;;;11.20;99.90;;;;;;5453277;26;20018;-84
2024/04/21 09:44:17;;;;;;;0.30;0.30;;;11.20;99.90;;;;;;5448733;26;19952;-83
2024/04/21 09:46:46;;;;;;;0.40;0.40;;;11.30;99.90;;;;;;5453245;26;20019;-83
2024/04/21 09:49:16;;;;;;;0.40;0.40;;;11.50;99.90;;;;;;5441145;26;20114;-84
2024/04/21 09:51:43;;;;;;;0.30;0.30;;;11.50;99.90;;;;;;5452742;26;20381;-83
2024/04/21 09:54:19;;;;;;;0.30;0.30;;;11.60;99.90;;;;;;5436448;26;20529;-83
2024/04/21 09:56:51;;;;;;;0.57;0.57;;;11.70;99.90;;;;;;5449523;26;20083;-84
2024/04/21 09:59:24;;;;;;;0.40;0.40;;;11.40;99.90;;;;;;5442222;26;20079;-82
2024/04/21 10:01:51;;;;;;;0.43;0.43;;;11.30;99.90;;;;;;5449903;26;20064;-82
2024/04/21 10:04:21;;;;;;;0.35;0.35;;;11.00;99.90;;;;;;5439429;26;20007;-84
2024/04/21 10:06:48;;;;;;;0.40;0.40;;;10.60;99.90;;;;;;5448238;26;20022;-83
2024/04/21 10:09:18;;;;;;;0.93;0.93;;;10.40;99.90;;;;;;5448822;26;20014;-84
2024/04/21 10:11:44;;;;;;;0.30;0.30;;;10.30;99.90;;;;;;5448397;26;20411;-84
2024/04/21 10:14:11;;;;;;;0.40;0.40;;;10.30;99.90;;;;;;5453829;26;20006;-84
2024/04/21 10:16:41;;;;;;;0.45;0.45;;;10.20;99.90;;;;;;5449153;26;20006;-81
2024/04/21 10:19:10;;;;;;;0.40;0.40;;;10.00;99.90;;;;;;5441855;26;20015;-82
2024/04/21 10:21:36;;;;;;;0.30;0.30;;;10.00;99.90;;;;;;5445960;26;20006;-83
2024/04/21 10:24:02;;;;;;;;;;;9.80;99.90;;;;;;5449913;26;20015;-81
2024/04/21 10:26:29;;;;;;;0.50;0.50;;;9.60;99.90;;;;;;5445255;26;19961;-80
2024/04/21 10:29:07;;;;;;;0.30;0.30;;;9.30;99.90;;;;;;5436804;26;20010;-80
2024/04/21 10:31:33;;;;;;;0.40;0.40;;;9.00;99.90;;;;;;5447438;26;20084;-82
2024/04/21 10:34:05;;;;;;;0.70;0.70;;;8.90;99.90;;;;;;5420332;26;20046;-81
2024/04/21 10:36:46;;;;;;;0.60;0.60;;;8.80;99.90;;;;;;5448180;26;20048;-81
2024/04/21 10:39:25;;;;;;;0.32;0.32;;;8.70;99.90;;;;;;5443047;26;19999;-80
2024/04/21 10:41:56;;;;;;;0.50;0.50;;;8.60;99.90;;;;;;5445832;26;19996;-82
2024/04/21 10:44:22;;;;;;;0.57;0.57;;;8.70;99.90;;;;;;5456604;26;20007;-80
2024/04/21 10:46:48;;;;;;;0.60;0.60;;;8.80;99.90;;;;;;5443040;26;20473;-82
2024/04/21 10:49:14;;;;;;;0.40;0.40;;;8.90;99.90;;;;;;5448998;26;20017;-81
2024/04/21 10:51:39;;;;;;;0.50;0.50;;;9.10;99.90;;;;;;5447577;26;20014;-82
2024/04/21 10:54:09;;;;;;;0.50;0.50;;;9.30;99.90;;;;;;5441439;26;20007;-82
2024/04/21 10:56:38;;;;;;;0.32;0.32;;;9.40;99.90;;;;;;5446813;26;20006;-82
2024/04/21 10:59:05;;;;;;;0.32;0.32;;;9.70;99.90;;;;;;5441077;26;20011;-80
2024/04/21 11:01:31;;;;;;;0.40;0.40;;;9.90;99.90;;;;;;5417771;26;20007;-82
2024/04/21 11:04:01;;;;;;;0.40;0.40;;;9.90;99.90;;;;;;5445843;26;20015;-80
2024/04/21 11:06:27;;;;;;;0.40;0.40;;;9.90;99.90;;;;;;5445677;26;20392;-81
2024/04/21 11:08:54;;;;;;;0.40;0.40;;;9.90;99.90;;;;;;5448165;26;20007;-81
2024/04/21 11:11:20;;;;;;;0.47;0.47;;;9.80;99.90;;;;;;5447145;26;20076;-80
2024/04/21 11:13:46;;;;;;;0.50;0.50;;;9.70;99.90;;;;;;5452320;26;20417;-81
2024/04/21 11:16:12;;;;;;;0.40;0.40;;;9.40;99.90;;;;;;5439725;26;20015;-81
2024/04/21 11:18:39;;;;;;;0.50;0.50;;;9.20;99.90;;;;;;5451734;26;20105;-81
2024/04/21 11:21:05;;;;;;;0.47;0.47;;;8.50;99.90;;;;;;5445632;26;20017;-82
2024/04/21 11:23:33;;;;;;;;;;;8.90;99.90;;;;;;5419802;26;20441;-81
2024/04/21 11:25:59;;;;;;;0.40;0.40;;;8.90;99.90;;;;;;5449155;26;19940;-81
2024/04/21 11:28:27;;;;;;;0.40;0.40;;;8.80;99.90;;;;;;5448761;26;20007;-81
2024/04/21 11:31:04;;;;;;;0.30;0.30;;;8.90;99.90;;;;;;5451748;26;20048;-80
2024/04/21 11:33:31;;;;;;;0.45;0.45;;;8.90;99.90;;;;;;5441524;26;20022;-82
2024/04/21 11:36:05;;;;;;;0.50;0.50;;;9.00;99.90;;;;;;5452181;26;20028;-82
2024/04/21 11:38:31;;;;;;;0.43;0.43;;;9.30;99.90;;;;;;5454571;26;20389;-81
2024/04/21 11:40:58;;;;;;;0.40;0.40;;;9.70;99.90;;;;;;5487930;26;20473;-81
2024/04/21 11:43:29;;;;;;;0.40;0.40;;;10.00;99.90;;;;;;5488292;26;20002;-84
2024/04/21 11:46:03;;;;;;;0.30;0.30;;;10.20;99.90;;;;;;5447353;26;20006;-84
2024/04/21 11:48:34;;;;;;;0.40;0.40;;;10.70;99.90;;;;;;5425817;26;20021;-83
2024/04/21 11:51:01;;;;;;;0.30;0.30;;;11.20;99.90;;;;;;5473815;26;20382;-83
2024/04/21 11:53:27;;;;;;;0.35;0.35;;;11.40;99.90;;;;;;5448043;26;20006;-83
2024/04/21 11:55:53;;;;;;;0.30;0.30;;;11.50;99.90;;;;;;5396180;26;20007;-82
2024/04/21 11:58:20;;;;;;;0.63;0.60;;;11.70;99.90;;;;;;5423241;26;20010;-83
2024/04/21 12:00:46;;;;;;;1.33;1.10;;;12.30;99.90;;;;;;5449822;26;20007;-83
2024/04/21 12:03:13;;;;;;;0.40;0.40;;;11.50;99.90;;;;;;5430586;26;20023;-84
2024/04/21 12:05:44;;;;;;;0.57;0.57;;;11.20;99.90;;;;;;5423517;26;19998;-84
2024/04/21 12:08:11;;;;;;;0.40;0.40;;;10.50;99.90;;;;;;5462033;26;20006;-85
2024/04/21 12:10:38;;;;;;;0.40;0.40;;;10.10;99.90;;;;;;5432869;26;20020;-85
2024/04/21 12:13:04;;;;;;;0.30;0.30;;;9.90;99.90;;;;;;5459509;26;20007;-83
2024/04/21 12:15:31;;;;;;;0.50;0.50;;;9.80;99.90;;;;;;5427576;26;20007;-83
2024/04/21 12:18:08;;;;;;;0.40;0.40;;;9.90;99.90;;;;;;5418874;26;20003;-83
2024/04/21 12:20:36;;;;;;;0.40;0.40;;;10.10;99.90;;;;;;5455230;26;20029;-81
2024/04/21 12:23:07;;;;;;;0.60;0.60;;;10.50;99.90;;;;;;5392542;26;20030;-81
2024/04/21 12:25:34;;;;;;;0.40;0.40;;;10.90;99.90;;;;;;5427586;26;20007;-84
2024/04/21 12:28:00;;;;;;;0.60;0.60;;;10.80;99.90;;;;;;5425856;26;20006;-80
2024/04/21 12:30:26;;;;;;;0.43;0.43;;;10.40;99.90;;;;;;5430109;26;20021;-83
2024/04/21 12:32:52;;;;;;;0.40;0.40;;;10.20;99.90;;;;;;5424451;26;20006;-82
2024/04/21 12:35:19;;;;;;;0.38;0.38;;;10.00;99.90;;;;;;5458636;26;20006;-84
2024/04/21 12:37:45;;;;;;;0.40;0.40;;;9.70;99.90;;;;;;5415669;26;20104;-82
2024/04/21 12:40:11;;;;;;;;;;;9.60;99.90;;;;;;5456224;26;20018;-84
2024/04/21 12:42:41;;;;;;;0.40;0.40;;;11.20;99.90;;;;;;5464538;26;19992;-83
2024/04/21 12:45:09;;;;;;;0.40;0.40;;;9.40;99.90;;;;;;5402225;26;20014;-83
2024/04/21 12:47:36;;;;;;;0.50;0.50;;;9.50;99.90;;;;;;5447271;26;20006;-84
2024/04/21 12:50:06;;;;;;;0.38;0.38;;;9.60;99.90;;;;;;5375510;26;20030;-85
2024/04/21 12:52:33;;;;;;;0.43;0.43;;;11.10;99.90;;;;;;5431250;26;20009;-85
2024/04/21 12:54:59;;;;;;;0.40;0.40;;;10.00;99.90;;;;;;5403648;26;20086;-83
2024/04/21 12:57:25;;;;;;;0.38;0.38;;;10.00;99.90;;;;;;5458779;26;20021;-82
2024/04/21 12:59:51;;;;;;;;;;;10.50;99.90;;;;;;5400170;26;20081;-83
2024/04/21 13:02:18;;;;;;;0.30;0.30;;;10.10;99.90;;;;;;5460637;26;20330;-84
2024/04/21 13:04:44;;;;;;;0.50;0.50;;;10.10;99.90;;;;;;5424410;26;20039;-82
2024/04/21 13:07:11;;;;;;;0.30;0.30;;;9.80;99.90;;;;;;5435526;26;20018;-81
2024/04/21 13:09:38;;;;;;;0.20;0.20;;;9.70;99.90;;;;;;5400684;26;20014;-84
2024/04/21 13:12:04;;;;;;;0.40;0.40;;;9.90;99.90;;;;;;5454568;26;20448;-84